Sakigake — JD4118 — position and weather

sailwx.info

Track history (hours):
 
Tides and Currents Weather Stations Pressure Air Temp Water Temp Dewpoint Dewpoint Depression Visibility Wind Speed Wind Dir Waves Ship Positions

Sakigake

Last reported at 2018-Feb-23 11:55 UTC. Time now 2018-Feb-23 22:07 UTC.
Position N 34°05' E 132°42'.

Length 80 m; draft 3.7 m.

Type: Cargo ship. MMSI: 431008777.

Date/timePositionNaut miles runAvg speedWind from/ knotsBaromVisibWave heightAir tempDewpointWater temp
2018-Feb-23 11:55N 34°05' E 132°42'511.9
2018-Feb-23 11:28N 34°01' E 132°38'1011.1
2018-Feb-23 10:33N 33°55' E 132°29'911.0
2018-Feb-23 09:43N 33°50' E 132°19'711.9
2018-Feb-23 09:10N 33°49' E 132°11'511.4
2018-Feb-23 08:45N 33°47' E 132°06'311.6
2018-Feb-23 08:30N 33°46' E 132°03'1612.3
2018-Feb-23 07:12N 33°56' E 131°48'210.0
2018-Feb-23 07:00N 33°58' E 131°49'4 7.2
2018-Feb-23 06:30N 34°00' E 131°52'0 0.0
2018-Feb-23 06:00N 34°00' E 131°52'0 0.0
2018-Feb-23 05:30N 34°00' E 131°52'0 0.0
2018-Feb-23 05:00N 34°00' E 131°52'0 0.0
2018-Feb-23 04:30N 34°00' E 131°52'0 0.0
2018-Feb-23 04:00N 34°00' E 131°52'0 0.0
2018-Feb-23 03:28N 34°00' E 131°52'0 0.0
2018-Feb-23 03:00N 34°00' E 131°52'0 0.0
2018-Feb-23 02:30N 34°00' E 131°52'0 0.0
2018-Feb-23 02:00N 34°00' E 131°52'0 0.0
2018-Feb-23 01:29N 34°00' E 131°52'1 1.4
2018-Feb-23 00:54N 33°60' E 131°51'4 9.4
2018-Feb-23 00:29N 33°57' E 131°48'1111.9
2018-Feb-22 23:35N 33°50' E 131°57'312.2
2018-Feb-22 23:22N 33°48' E 131°60'510.1
2018-Feb-22 22:52N 33°47' E 132°06'712.3
2018-Feb-22 22:18N 33°50' E 132°13'412.3
2018-Feb-22 21:58N 33°50' E 132°18'1212.5
2018-Feb-22 21:01N 33°53' E 132°32'112.8
2018-Feb-22 20:56N 33°53' E 132°33'512.6
2018-Feb-22 20:30N 33°56' E 132°39'612.1
2018-Feb-22 20:00N 34°00' E 132°44'77 2.5
2018-Feb-21 13:27N 34°25' E 134°12'713.1
2018-Feb-21 12:56N 34°23' E 134°20'512.8
2018-Feb-21 12:30N 34°21' E 134°26'612.8
2018-Feb-21 12:00N 34°18' E 134°33'612.6
2018-Feb-21 11:30N 34°14' E 134°39'712.4
2018-Feb-21 10:59N 34°09' E 134°43'612.2
2018-Feb-21 10:30N 34°04' E 134°47'612.0
2018-Feb-21 10:00N 33°59' E 134°52'612.1
2018-Feb-21 09:30N 33°54' E 134°56'612.0
2018-Feb-21 09:00N 33°50' E 135°01'165 9.9
2018-Feb-20 16:21N 34°34' E 138°14'410.2
2018-Feb-20 15:59N 34°35' E 138°18'510.2
2018-Feb-20 15:27N 34°37' E 138°25'4 9.7
2018-Feb-20 15:00N 34°37' E 138°30'5 9.4
2018-Feb-20 14:30N 34°37' E 138°36'5 8.7
2018-Feb-20 13:59N 34°36' E 138°41'4 8.0
2018-Feb-20 13:26N 34°36' E 138°46'3 7.4
2018-Feb-20 13:01N 34°35' E 138°50'4 8.2
2018-Feb-20 12:30N 34°36' E 138°55'710.9
2018-Feb-20 11:54N 34°40' E 139°01'713.5
2018-Feb-20 11:23N 34°46' E 139°06'912.9
2018-Feb-20 10:42N 34°53' E 139°12'312.2
2018-Feb-20 10:26N 34°55' E 139°15'511.6
2018-Feb-20 10:00N 34°58' E 139°21'611.2
2018-Feb-20 09:30N 35°01' E 139°26'611.6
2018-Feb-20 09:00N 35°03' E 139°33'611.4
2018-Feb-20 08:30N 35°06' E 139°39'612.2
2018-Feb-20 07:59N 35°10' E 139°44'611.6
2018-Feb-20 07:30N 35°15' E 139°46'611.7
2018-Feb-20 07:00N 35°20' E 139°42'511.0
2018-Feb-20 06:30N 35°26' E 139°44'612.0
2018-Feb-20 06:00N 35°29' E 139°50'611.4
2018-Feb-20 05:30N 35°34' E 139°55'611.1
2018-Feb-20 05:00N 35°39' E 139°58'2 1.3
2018-Feb-20 03:13N 35°40' E 139°57'0 0.0
2018-Feb-20 02:55N 35°40' E 139°57'0 0.0
2018-Feb-20 02:21N 35°40' E 139°57'0 0.0
2018-Feb-20 01:48N 35°40' E 139°57'0 0.0
2018-Feb-19 22:43N 35°40' E 139°57'0 0.0
2018-Feb-19 17:53N 35°40' E 139°57'0 0.0
2018-Feb-19 16:12N 35°40' E 139°57'0 0.0
2018-Feb-19 15:49N 35°40' E 139°57'0 0.0
2018-Feb-19 07:55N 35°40' E 139°57'0 0.0
2018-Feb-19 06:44N 35°40' E 139°57'0 0.0
2018-Feb-19 02:04N 35°40' E 139°57'0 0.0
2018-Feb-18 23:19N 35°40' E 139°57'0 0.1
2018-Feb-18 22:38N 35°40' E 139°57'2 5.2
2018-Feb-18 22:18N 35°39' E 139°58'2 5.4
2018-Feb-18 22:00N 35°37' E 139°58'3 6.0
2018-Feb-18 21:28N 35°35' E 139°56'5 9.7
2018-Feb-18 20:56N 35°30' E 139°53'511.4
2018-Feb-18 20:30N 35°27' E 139°49'611.5
2018-Feb-18 20:00N 35°22' E 139°45'611.2
2018-Feb-18 19:31N 35°16' E 139°46'612.0
2018-Feb-18 19:00N 35°10' E 139°46'811.7
2018-Feb-18 18:20N 35°04' E 139°40'411.8
2018-Feb-18 17:59N 35°01' E 139°36'1612.7
2018-Feb-18 16:45N 34°52' E 139°21'413.3
2018-Feb-18 16:26N 34°49' E 139°17'1112.9
2018-Feb-18 15:36N 34°42' E 139°07'113.3
2018-Feb-18 15:30N 34°41' E 139°06'713.0
2018-Feb-18 15:00N 34°37' E 138°60'1612.3
2018-Feb-18 13:42N 34°34' E 138°41'312.6
2018-Feb-18 13:28N 34°33' E 138°37'612.7
2018-Feb-18 12:59N 34°33' E 138°30'712.4
2018-Feb-18 12:24N 34°32' E 138°21'512.9
2018-Feb-18 11:59N 34°31' E 138°15'713.0
2018-Feb-18 11:28N 34°31' E 138°06'15810.2
2018-Feb-17 20:01N 33°51' E 135°02'112.5
2018-Feb-17 19:58N 33°51' E 135°01'612.3
2018-Feb-17 19:30N 33°56' E 134°57'712.4
2018-Feb-17 18:59N 34°01' E 134°52'612.7
2018-Feb-17 18:29N 34°06' E 134°47'713.3
2018-Feb-17 17:56N 34°12' E 134°42'613.7
2018-Feb-17 17:30N 34°16' E 134°37'612.7
2018-Feb-17 17:00N 34°19' E 134°30'712.8
2018-Feb-17 16:30N 34°21' E 134°23'1013.2
2018-Feb-17 15:44N 34°25' E 134°11'  
2018-Feb-15 11:37N 34°23' E 134°19'213.0
2018-Feb-15 11:26N 34°22' E 134°21'512.5
2018-Feb-15 11:00N 34°20' E 134°27'612.8
2018-Feb-15 10:30N 34°17' E 134°34'612.6
2018-Feb-15 10:00N 34°13' E 134°40'712.8
2018-Feb-15 09:30N 34°08' E 134°45'612.0
2018-Feb-15 09:00N 34°04' E 134°50'612.2
2018-Feb-15 08:30N 33°59' E 134°55'612.1
2018-Feb-15 08:00N 33°54' E 134°59'81 3.3
2018-Feb-14 07:47N 34°04' E 136°36'7410.6
2018-Feb-14 00:49N 34°36' E 137°57'910.2
2018-Feb-13 23:55N 34°34' E 138°08'4 9.5
2018-Feb-13 23:27N 34°34' E 138°13'4 9.8
2018-Feb-13 23:00N 34°35' E 138°18'610.5
2018-Feb-13 22:24N 34°37' E 138°26'410.2
2018-Feb-13 22:00N 34°37' E 138°31'5 9.4
2018-Feb-13 21:29N 34°36' E 138°37'4 8.6
2018-Feb-13 20:58N 34°35' E 138°42'5 9.0
2018-Feb-13 20:28N 34°35' E 138°48'5 9.4
2018-Feb-13 19:59N 34°35' E 138°53'510.4
2018-Feb-13 19:28N 34°38' E 138°59'511.5
2018-Feb-13 19:00N 34°42' E 139°03'611.6
2018-Feb-13 18:30N 34°47' E 139°07'1211.7
2018-Feb-13 17:28N 34°57' E 139°14'511.3
2018-Feb-13 17:00N 34°60' E 139°20'611.9
2018-Feb-13 16:30N 35°02' E 139°27'611.9
2018-Feb-13 15:59N 35°05' E 139°33'612.0
2018-Feb-13 15:30N 35°07' E 139°40'611.7
2018-Feb-13 15:01N 35°11' E 139°45'510.8
2018-Feb-13 14:30N 35°17' E 139°45'510.9
2018-Feb-13 14:01N 35°21' E 139°41'0 0.6
2018-Feb-13 13:31N 35°21' E 139°41'0 0.1
2018-Feb-13 12:58N 35°21' E 139°41'0 0.0
2018-Feb-13 12:28N 35°21' E 139°41'0 0.0
2018-Feb-13 11:58N 35°21' E 139°41'  
Track history (hours):
 
Tides and Currents Weather Stations Pressure Air Temp Water Temp Dewpoint Dewpoint Depression Visibility Wind Speed Wind Dir Waves Ship Positions

Sakigake

Last reported at 2018-Feb-23 11:55 UTC. Time now 2018-Feb-23 22:07 UTC.
Position N 34°05' E 132°42'.

Length 80 m; draft 3.7 m.

Type: Cargo ship. MMSI: 431008777.

Date/timePositionNaut miles runAvg speedWind from/ knotsBaromVisibWave heightAir tempDewpointWater temp
2018-Feb-23 11:55N 34°05' E 132°42'511.9
2018-Feb-23 11:28N 34°01' E 132°38'1011.1
2018-Feb-23 10:33N 33°55' E 132°29'911.0
2018-Feb-23 09:43N 33°50' E 132°19'711.9
2018-Feb-23 09:10N 33°49' E 132°11'511.4
2018-Feb-23 08:45N 33°47' E 132°06'311.6
2018-Feb-23 08:30N 33°46' E 132°03'1612.3
2018-Feb-23 07:12N 33°56' E 131°48'210.0
2018-Feb-23 07:00N 33°58' E 131°49'4 7.2
2018-Feb-23 06:30N 34°00' E 131°52'0 0.0
2018-Feb-23 06:00N 34°00' E 131°52'0 0.0
2018-Feb-23 05:30N 34°00' E 131°52'0 0.0
2018-Feb-23 05:00N 34°00' E 131°52'0 0.0
2018-Feb-23 04:30N 34°00' E 131°52'0 0.0
2018-Feb-23 04:00N 34°00' E 131°52'0 0.0
2018-Feb-23 03:28N 34°00' E 131°52'0 0.0
2018-Feb-23 03:00N 34°00' E 131°52'0 0.0
2018-Feb-23 02:30N 34°00' E 131°52'0 0.0
2018-Feb-23 02:00N 34°00' E 131°52'0 0.0
2018-Feb-23 01:29N 34°00' E 131°52'1 1.4
2018-Feb-23 00:54N 33°60' E 131°51'4 9.4
2018-Feb-23 00:29N 33°57' E 131°48'1111.9
2018-Feb-22 23:35N 33°50' E 131°57'312.2
2018-Feb-22 23:22N 33°48' E 131°60'510.1
2018-Feb-22 22:52N 33°47' E 132°06'712.3
2018-Feb-22 22:18N 33°50' E 132°13'412.3
2018-Feb-22 21:58N 33°50' E 132°18'1212.5
2018-Feb-22 21:01N 33°53' E 132°32'112.8
2018-Feb-22 20:56N 33°53' E 132°33'512.6
2018-Feb-22 20:30N 33°56' E 132°39'612.1
2018-Feb-22 20:00N 34°00' E 132°44'77 2.5
2018-Feb-21 13:27N 34°25' E 134°12'713.1
2018-Feb-21 12:56N 34°23' E 134°20'512.8
2018-Feb-21 12:30N 34°21' E 134°26'612.8
2018-Feb-21 12:00N 34°18' E 134°33'612.6
2018-Feb-21 11:30N 34°14' E 134°39'712.4
2018-Feb-21 10:59N 34°09' E 134°43'612.2
2018-Feb-21 10:30N 34°04' E 134°47'612.0
2018-Feb-21 10:00N 33°59' E 134°52'612.1
2018-Feb-21 09:30N 33°54' E 134°56'612.0
2018-Feb-21 09:00N 33°50' E 135°01'165 9.9
2018-Feb-20 16:21N 34°34' E 138°14'410.2
2018-Feb-20 15:59N 34°35' E 138°18'510.2
2018-Feb-20 15:27N 34°37' E 138°25'4 9.7
2018-Feb-20 15:00N 34°37' E 138°30'5 9.4
2018-Feb-20 14:30N 34°37' E 138°36'5 8.7
2018-Feb-20 13:59N 34°36' E 138°41'4 8.0
2018-Feb-20 13:26N 34°36' E 138°46'3 7.4
2018-Feb-20 13:01N 34°35' E 138°50'4 8.2
2018-Feb-20 12:30N 34°36' E 138°55'710.9
2018-Feb-20 11:54N 34°40' E 139°01'713.5
2018-Feb-20 11:23N 34°46' E 139°06'912.9
2018-Feb-20 10:42N 34°53' E 139°12'312.2
2018-Feb-20 10:26N 34°55' E 139°15'511.6
2018-Feb-20 10:00N 34°58' E 139°21'611.2
2018-Feb-20 09:30N 35°01' E 139°26'611.6
2018-Feb-20 09:00N 35°03' E 139°33'611.4
2018-Feb-20 08:30N 35°06' E 139°39'612.2
2018-Feb-20 07:59N 35°10' E 139°44'611.6
2018-Feb-20 07:30N 35°15' E 139°46'611.7
2018-Feb-20 07:00N 35°20' E 139°42'511.0
2018-Feb-20 06:30N 35°26' E 139°44'612.0
2018-Feb-20 06:00N 35°29' E 139°50'611.4
2018-Feb-20 05:30N 35°34' E 139°55'611.1
2018-Feb-20 05:00N 35°39' E 139°58'2 1.3
2018-Feb-20 03:13N 35°40' E 139°57'0 0.0
2018-Feb-20 02:55N 35°40' E 139°57'0 0.0
2018-Feb-20 02:21N 35°40' E 139°57'0 0.0
2018-Feb-20 01:48N 35°40' E 139°57'0 0.0
2018-Feb-19 22:43N 35°40' E 139°57'0 0.0
2018-Feb-19 17:53N 35°40' E 139°57'0 0.0
2018-Feb-19 16:12N 35°40' E 139°57'0 0.0
2018-Feb-19 15:49N 35°40' E 139°57'0 0.0
2018-Feb-19 07:55N 35°40' E 139°57'0 0.0
2018-Feb-19 06:44N 35°40' E 139°57'0 0.0
2018-Feb-19 02:04N 35°40' E 139°57'0 0.0
2018-Feb-18 23:19N 35°40' E 139°57'0 0.1
2018-Feb-18 22:38N 35°40' E 139°57'2 5.2
2018-Feb-18 22:18N 35°39' E 139°58'2 5.4
2018-Feb-18 22:00N 35°37' E 139°58'3 6.0
2018-Feb-18 21:28N 35°35' E 139°56'5 9.7
2018-Feb-18 20:56N 35°30' E 139°53'511.4
2018-Feb-18 20:30N 35°27' E 139°49'611.5
2018-Feb-18 20:00N 35°22' E 139°45'611.2
2018-Feb-18 19:31N 35°16' E 139°46'612.0
2018-Feb-18 19:00N 35°10' E 139°46'811.7
2018-Feb-18 18:20N 35°04' E 139°40'411.8
2018-Feb-18 17:59N 35°01' E 139°36'1612.7
2018-Feb-18 16:45N 34°52' E 139°21'413.3
2018-Feb-18 16:26N 34°49' E 139°17'1112.9
2018-Feb-18 15:36N 34°42' E 139°07'113.3
2018-Feb-18 15:30N 34°41' E 139°06'713.0
2018-Feb-18 15:00N 34°37' E 138°60'1612.3
2018-Feb-18 13:42N 34°34' E 138°41'312.6
2018-Feb-18 13:28N 34°33' E 138°37'612.7
2018-Feb-18 12:59N 34°33' E 138°30'712.4
2018-Feb-18 12:24N 34°32' E 138°21'512.9
2018-Feb-18 11:59N 34°31' E 138°15'713.0
2018-Feb-18 11:28N 34°31' E 138°06'15810.2
2018-Feb-17 20:01N 33°51' E 135°02'112.5
2018-Feb-17 19:58N 33°51' E 135°01'612.3
2018-Feb-17 19:30N 33°56' E 134°57'712.4
2018-Feb-17 18:59N 34°01' E 134°52'612.7
2018-Feb-17 18:29N 34°06' E 134°47'713.3
2018-Feb-17 17:56N 34°12' E 134°42'613.7
2018-Feb-17 17:30N 34°16' E 134°37'612.7
2018-Feb-17 17:00N 34°19' E 134°30'712.8
2018-Feb-17 16:30N 34°21' E 134°23'1013.2
2018-Feb-17 15:44N 34°25' E 134°11'  
2018-Feb-15 11:37N 34°23' E 134°19'213.0
2018-Feb-15 11:26N 34°22' E 134°21'512.5
2018-Feb-15 11:00N 34°20' E 134°27'612.8
2018-Feb-15 10:30N 34°17' E 134°34'612.6
2018-Feb-15 10:00N 34°13' E 134°40'712.8
2018-Feb-15 09:30N 34°08' E 134°45'612.0
2018-Feb-15 09:00N 34°04' E 134°50'612.2
2018-Feb-15 08:30N 33°59' E 134°55'612.1
2018-Feb-15 08:00N 33°54' E 134°59'81 3.3
2018-Feb-14 07:47N 34°04' E 136°36'7410.6
2018-Feb-14 00:49N 34°36' E 137°57'910.2
2018-Feb-13 23:55N 34°34' E 138°08'4 9.5
2018-Feb-13 23:27N 34°34' E 138°13'4 9.8
2018-Feb-13 23:00N 34°35' E 138°18'610.5
2018-Feb-13 22:24N 34°37' E 138°26'410.2
2018-Feb-13 22:00N 34°37' E 138°31'5 9.4
2018-Feb-13 21:29N 34°36' E 138°37'4 8.6
2018-Feb-13 20:58N 34°35' E 138°42'5 9.0
2018-Feb-13 20:28N 34°35' E 138°48'5 9.4
2018-Feb-13 19:59N 34°35' E 138°53'510.4
2018-Feb-13 19:28N 34°38' E 138°59'511.5
2018-Feb-13 19:00N 34°42' E 139°03'611.6
2018-Feb-13 18:30N 34°47' E 139°07'1211.7
2018-Feb-13 17:28N 34°57' E 139°14'511.3
2018-Feb-13 17:00N 34°60' E 139°20'611.9
2018-Feb-13 16:30N 35°02' E 139°27'611.9
2018-Feb-13 15:59N 35°05' E 139°33'612.0
2018-Feb-13 15:30N 35°07' E 139°40'611.7
2018-Feb-13 15:01N 35°11' E 139°45'510.8
2018-Feb-13 14:30N 35°17' E 139°45'510.9
2018-Feb-13 14:01N 35°21' E 139°41'0 0.6
2018-Feb-13 13:31N 35°21' E 139°41'0 0.1
2018-Feb-13 12:58N 35°21' E 139°41'0 0.0
2018-Feb-13 12:28N 35°21' E 139°41'0 0.0
2018-Feb-13 11:58N 35°21' E 139°41'  

Dump ship's entire track history